createdAt,value
2022-08-09T00:01:55.970Z,73.45
2022-08-09T00:04:34.238Z,73.61
2022-08-09T00:07:07.790Z,73.66
2022-08-09T00:09:41.646Z,73.38
2022-08-09T00:12:22.491Z,73.35
2022-08-09T00:14:56.929Z,73.48
2022-08-09T00:18:07.675Z,72.97
2022-08-09T00:20:18.051Z,73.48
2022-08-09T00:22:49.166Z,73.25
2022-08-09T00:25:23.027Z,73.80
2022-08-09T00:27:54.229Z,73.36
2022-08-09T00:30:27.069Z,73.55
2022-08-09T00:32:57.127Z,72.35
2022-08-09T00:35:29.781Z,72.84
2022-08-09T00:38:15.126Z,73.06
2022-08-09T00:40:53.079Z,73.61
2022-08-09T00:44:16.199Z,73.63
2022-08-09T00:46:44.169Z,73.55
2022-08-09T00:49:05.314Z,73.53
2022-08-09T00:51:54.111Z,73.36
2022-08-09T00:54:31.470Z,73.10
2022-08-09T00:57:08.958Z,73.26
2022-08-09T00:59:52.423Z,72.90
2022-08-09T01:02:25.215Z,73.50
2022-08-09T01:05:50.777Z,72.47
2022-08-09T01:08:48.982Z,73.28
2022-08-09T01:11:53.257Z,73.64
2022-08-09T01:15:06.000Z,73.14
2022-08-09T01:18:09.470Z,72.67
2022-08-09T01:21:02.777Z,72.83
2022-08-09T01:24:00.891Z,73.01
2022-08-09T01:26:52.945Z,73.23
2022-08-09T01:29:55.942Z,72.72
2022-08-09T01:32:43.745Z,73.26
2022-08-09T01:35:44.929Z,72.74
2022-08-09T01:38:23.455Z,72.21
2022-08-09T01:41:05.040Z,71.97
2022-08-09T01:43:41.786Z,72.39
2022-08-09T01:46:34.636Z,72.38
2022-08-09T01:49:14.807Z,71.81
2022-08-09T01:51:59.156Z,71.81
2022-08-09T01:55:03.272Z,71.27
2022-08-09T01:57:46.100Z,72.14
2022-08-09T02:00:35.604Z,72.26
2022-08-09T02:03:13.587Z,71.71
2022-08-09T02:06:03.285Z,72.11
2022-08-09T02:08:58.847Z,71.46
2022-08-09T02:11:42.071Z,71.51
2022-08-09T02:14:25.557Z,72.21
2022-08-09T02:17:14.569Z,72.14
2022-08-09T02:19:48.300Z,71.15
2022-08-09T02:22:53.361Z,71.71
2022-08-09T02:25:29.178Z,71.36
2022-08-09T02:28:05.344Z,71.45
2022-08-09T02:30:53.299Z,71.08
2022-08-09T02:33:38.409Z,71.32
2022-08-09T02:36:32.563Z,71.29
2022-08-09T02:39:04.870Z,71.92
2022-08-09T02:41:52.441Z,71.24
2022-08-09T02:44:30.021Z,71.11
2022-08-09T02:47:05.344Z,70.81
2022-08-09T02:49:41.333Z,70.08
2022-08-09T02:52:17.203Z,69.75
2022-08-09T02:54:54.523Z,70.13
2022-08-09T02:57:28.047Z,71.22
2022-08-09T03:00:21.257Z,71.15
2022-08-09T03:03:00.257Z,71.09
2022-08-09T03:05:34.930Z,70.65
2022-08-09T03:08:07.164Z,69.63
2022-08-09T03:10:39.102Z,70.66
2022-08-09T03:13:16.913Z,70.48
2022-08-09T03:16:05.847Z,69.34
2022-08-09T03:19:14.500Z,69.51
2022-08-09T03:22:12.142Z,69.27
2022-08-09T03:25:26.679Z,69.61
2022-08-09T03:28:18.288Z,69.60
2022-08-09T03:30:53.556Z,68.72
2022-08-09T03:34:04.666Z,69.23
2022-08-09T03:39:56.893Z,69.71
2022-08-09T03:42:30.797Z,69.18
2022-08-09T03:45:03.976Z,69.84
2022-08-09T03:47:36.596Z,69.31
2022-08-09T03:50:11.769Z,68.87
2022-08-09T03:52:46.651Z,69.74
2022-08-09T03:55:20.321Z,69.29
2022-08-09T03:57:57.537Z,69.53
2022-08-09T04:00:38.359Z,68.75
2022-08-09T04:03:11.723Z,68.75
2022-08-09T04:05:47.045Z,68.70
2022-08-09T04:08:19.646Z,69.28
2022-08-09T04:11:01.570Z,68.54
2022-08-09T04:14:37.327Z,68.32
2022-08-09T04:16:22.949Z,69.16
2022-08-09T04:18:53.354Z,69.63
2022-08-09T04:21:23.960Z,69.62
2022-08-09T04:23:57.767Z,69.08
2022-08-09T04:26:35.225Z,69.49
2022-08-09T04:29:14.718Z,68.69
2022-08-09T04:31:47.280Z,68.30
2022-08-09T04:34:18.891Z,68.35
2022-08-09T04:37:00.689Z,66.97
2022-08-09T04:39:31.459Z,67.89
2022-08-09T04:42:02.798Z,68.15
2022-08-09T04:44:49.291Z,68.84
2022-08-09T04:47:19.677Z,68.95
2022-08-09T04:49:54.509Z,67.93
2022-08-09T04:52:28.041Z,68.54
2022-08-09T04:55:00.813Z,67.64
2022-08-09T04:57:58.301Z,66.70
2022-08-09T05:00:23.232Z,66.99
2022-08-09T05:02:53.905Z,68.67
2022-08-09T05:05:32.331Z,67.29
2022-08-09T05:08:15.277Z,66.18
2022-08-09T05:10:46.969Z,66.15
2022-08-09T05:13:21.376Z,68.03
2022-08-09T05:15:57.177Z,68.01
2022-08-09T05:18:37.643Z,66.85
2022-08-09T05:21:23.100Z,67.98
2022-08-09T05:24:02.078Z,67.23
2022-08-09T05:26:37.252Z,66.11
2022-08-09T05:29:31.225Z,66.08
2022-08-09T05:32:01.927Z,63.62
2022-08-09T05:34:34.233Z,66.29
2022-08-09T05:37:11.487Z,65.34
2022-08-09T05:39:44.620Z,66.72
2022-08-09T05:42:18.024Z,65.15
2022-08-09T05:44:55.872Z,66.41
2022-08-09T05:47:33.319Z,67.01
2022-08-09T05:50:31.775Z,63.89
2022-08-09T05:53:06.544Z,64.90
2022-08-09T05:55:53.134Z,65.17
2022-08-09T05:58:24.995Z,64.35
2022-08-09T06:01:00.808Z,65.86
2022-08-09T06:03:43.832Z,65.66
2022-08-09T06:06:17.354Z,65.43
2022-08-09T06:08:52.714Z,65.58
2022-08-09T06:11:24.450Z,64.26
2022-08-09T06:14:11.411Z,63.41
2022-08-09T06:16:42.036Z,63.40
2022-08-09T06:19:22.437Z,64.85
2022-08-09T06:21:58.729Z,64.79
2022-08-09T06:24:29.911Z,63.61
2022-08-09T06:27:01.739Z,63.69
2022-08-09T06:29:32.705Z,63.06
2022-08-09T06:33:00.184Z,62.81
2022-08-09T06:35:10.750Z,63.33
2022-08-09T06:37:53.291Z,63.22
2022-08-09T06:40:34.622Z,60.23
2022-08-09T06:43:07.649Z,58.92
2022-08-09T06:46:06.092Z,61.09
2022-08-09T06:48:31.365Z,61.42
2022-08-09T06:51:04.385Z,60.94
2022-08-09T06:53:38.505Z,58.95
2022-08-09T06:56:11.912Z,60.74
2022-08-09T07:00:56.083Z,60.86
2022-08-09T07:01:53.526Z,59.48
2022-08-09T07:04:27.145Z,61.56
2022-08-09T07:07:00.432Z,62.23
2022-08-09T07:09:55.252Z,61.48
2022-08-09T07:12:21.793Z,60.56
2022-08-09T07:16:39.058Z,61.30
2022-08-09T07:18:02.314Z,61.31
2022-08-09T07:20:33.398Z,61.58
2022-08-09T07:23:18.109Z,58.60
2022-08-09T07:26:02.489Z,60.54
2022-08-09T07:28:34.914Z,62.01
2022-08-09T07:31:06.898Z,59.30
2022-08-09T07:33:52.845Z,58.07
2022-08-09T07:36:26.331Z,59.98
2022-08-09T07:39:01.041Z,60.94
2022-08-09T07:41:38.943Z,60.46
2022-08-09T07:44:09.756Z,60.37
2022-08-09T07:46:42.117Z,59.72
2022-08-09T07:49:15.402Z,59.58
2022-08-09T07:52:06.168Z,60.14
2022-08-09T07:54:36.680Z,60.01
2022-08-09T07:57:11.765Z,59.79
2022-08-09T07:59:45.962Z,59.71
2022-08-09T08:02:29.342Z,58.90
2022-08-09T08:05:00.214Z,60.77
2022-08-09T08:08:43.125Z,60.07
2022-08-09T08:10:22.006Z,58.59
2022-08-09T08:12:57.870Z,59.00
2022-08-09T08:15:28.148Z,60.40
2022-08-09T08:17:59.068Z,58.23
2022-08-09T08:20:33.027Z,59.46
2022-08-09T08:23:17.173Z,60.44
2022-08-09T08:26:06.073Z,60.10
2022-08-09T08:28:37.220Z,59.49
2022-08-09T08:31:14.060Z,58.58
2022-08-09T08:33:52.490Z,58.93
2022-08-09T08:36:28.694Z,59.20
2022-08-09T08:39:01.490Z,58.31
2022-08-09T08:41:51.523Z,57.49
2022-08-09T08:44:29.353Z,59.36
2022-08-09T08:47:05.123Z,59.26
2022-08-09T08:49:47.822Z,59.26
2022-08-09T08:52:52.892Z,58.99
2022-08-09T08:55:15.334Z,57.80
2022-08-09T08:57:56.354Z,56.83
2022-08-09T09:00:34.216Z,58.07
2022-08-09T09:03:12.305Z,59.14
2022-08-09T09:05:58.497Z,58.27
2022-08-09T09:08:42.181Z,59.67
2022-08-09T09:11:17.689Z,58.95
2022-08-09T09:13:56.199Z,57.70
2022-08-09T09:16:34.356Z,59.00
2022-08-09T09:19:40.316Z,58.36
2022-08-09T09:22:26.605Z,60.73
2022-08-09T09:26:03.592Z,58.58
2022-08-09T09:28:03.740Z,59.93
2022-08-09T09:30:57.801Z,60.40
2022-08-09T09:33:44.301Z,59.74
2022-08-09T09:36:20.371Z,58.45
2022-08-09T09:38:59.418Z,59.67
2022-08-09T09:41:33.418Z,58.50
2022-08-09T09:44:31.558Z,57.98
2022-08-09T09:47:10.834Z,60.13
2022-08-09T09:50:07.767Z,60.91
2022-08-09T09:52:37.486Z,58.84
2022-08-09T09:55:31.404Z,59.27
2022-08-09T09:58:45.653Z,58.93
2022-08-09T10:01:36.810Z,60.56
2022-08-09T10:04:22.996Z,59.43
2022-08-09T10:07:11.739Z,59.62
2022-08-09T23:58:10.461Z,69.37
